Palm Springs, CA

17:01 PDT le 27 septembre 2016 (GMT -0700)
Palm Springs International | | Change Station

Alt. 476 ft 33.82 °N, 116.50 °W | Updated 8 minutes ago

Mostly Cloudy
Nuageux
87 ° F
Paraît 87 ° F
N
6
Vent Variable Vent de Sud

Aujourd'hui
Haut(e) -- | Bas -- ° F
--% Risque de précip.
Hier
Haut(e) -- | Bas -- ° F
Precip. -- pouce
Pression 29.87 pouce
Visibilité 10.0 Miles terrestres
Nuages Nuageux 13000 ft
Point de rosée 50 ° F
Humidité 28%
Précipitations 0.00 pouce
Profondeur de la couche neigeuse Non disponible.
6:38 AM 6:34 PM
Lune descendante, 9% visible
METAR KPSP 272353Z 19005KT 10SM BKN130 31/10 A2988 RMK AO2 SLP115 T03060100 10317 20294 58007
Pression 29.87 pouce
Visibilité 10.0 Miles terrestres
Nuages Nuageux 13000 ft
Point de rosée 50 ° F
Humidité 28%
Précipitations 0.00 pouce
Profondeur de la couche neigeuse Non disponible.
6:38 AM 6:34 PM
Lune descendante, 9% visible
METAR KPSP 272353Z 19005KT 10SM BKN130 31/10 A2988 RMK AO2 SLP115 T03060100 10317 20294 58007

10-Day Weather Forecast

Almanac

Astronomie

Sep. 27, 2016 Lever Coucher
Temps réel
Crépuscule civil
Crépuscule nautique
Crépuscule astronomique
Lune
Durée de lumière visible
Longueur du jour
Tomorrow will be .
, % of the Moon is Illuminated

Extrêmes aujourd'hui

State Highs State Lows

Community

WunderPhotos

Upload Photos

1,942,179 Photos téléchargées !

WunderBlog® & News

Nearby

Qualité de l'air

  Qualité de l'air Indice de la qualité de l'air Polluant
Not available.

Épaisseur de neige

Station Depth Altitude

Activité sismique

Ville Distance Mag. Time & Date
Minimum magnitude displayed is 2.5.

Températures des eaux côtières

Lieu Température

Stations

Stations météo à proximité

Emplacement de la station Température Refroidissement éolien Point de rosée Humidité Vent Precip. Alt. Mise à jour Type
                   

Watches & Warnings

There are currently no watches in effect.